Smicksburg, Pennsylvania
Current Conditions -  °F | °C
As of 8:35 AM on Tuesday 21 Oct 2014 (Local Time) from KIDI Reporting Station
Haze Haze  
Wind Chill: 50°   Ceiling: 300
Heat Index: 50°   Visibility: 0.5mi
Dew Point: 50°   Wind: 7mph
Humidity: 100%   Direction: 240°WSW
Pressure: 29.9"   Gusts: NA
Location:  40.87°N, 79.17°W
Report Text: KIDI 211235Z AUTO 24006KT 1/2SM BR OVC003 10/10 A2990 RMK A01
Loading
Personal Weather Stations






























Interactive Weather Map
Tropical Storm Tracking
New forecast layout! Learn more

10-Day Weather Forecast

Advertisements
Track Severe Weather on mobile